Time;durP1;ratioP1;P1;durP2;ratioP2;P2;SDS_P1;SDS_P2;PMS_P1;PMS_P2;Temp;Humidity;BMP_temperature;BMP_pressure;BME280_temperature;BME280_humidity;BME280_pressure;Samples;Min_cycle;Max_cycle;Signal;HPM_P1;HPM_P2
2022/05/23 00:00:20;;;;;;;;;;;;;;;23.15;40.51;94731.06;2058231;28;1109;-61
2022/05/23 00:01:21;;;;;;;;;;;;;;;23.16;40.04;94733.53;2053331;28;1117;-61
2022/05/23 00:02:24;;;;;;;;;;;;;;;23.16;40.48;94732.69;2054093;28;1660;-61
2022/05/23 00:03:27;;;;;;;;;;;;;;;23.16;40.29;94732.69;2065312;28;1812;-61
2022/05/23 00:04:30;;;;;;;;;;;;;;;23.16;40.57;94738.91;2065592;28;1846;-63
2022/05/23 00:05:32;;;;;;;;;;;;;;;23.15;40.30;94731.88;2065114;28;1709;-64
2022/05/23 00:06:35;;;;;;;;;;;;;;;23.16;40.46;94732.69;2063570;28;1796;-61
2022/05/23 00:07:38;;;;;;;;;;;;;;;23.16;40.43;94730.00;2065791;28;1720;-63
2022/05/23 00:08:41;;;;;;;;;;;;;;;23.15;40.51;94739.13;2063828;28;1582;-62
2022/05/23 00:09:43;;;;;;;;;;;;;;;23.17;40.32;94737.03;2064461;28;1666;-62
2022/05/23 00:10:45;;;;;;;;;;;;;;;23.15;40.04;94736.44;2065842;28;1967;-62
2022/05/23 00:11:47;;;;;;;;;;;;;;;23.14;40.07;94734.81;2065418;28;1625;-61
2022/05/23 00:12:50;;;;;;;;;;;;;;;23.09;40.39;94735.50;2060847;28;1495;-62
2022/05/23 00:13:53;;;;;;;;;;;;;;;23.07;40.35;94739.47;2061244;28;1139;-61
2022/05/23 00:14:56;;;;;;;;;;;;;;;23.05;40.52;94738.88;2064049;28;1518;-61
2022/05/23 00:15:58;;;;;;;;;;;;;;;23.05;40.32;94736.19;2058247;28;1041;-61
2022/05/23 00:17:01;;;;;;;;;;;;;;;23.04;40.29;94731.91;2057973;28;1093;-63
2022/05/23 00:18:03;;;;;;;;;;;;;;;23.03;40.43;94733.75;2057744;28;1296;-63
2022/05/23 00:19:06;;;;;;;;;;;;;;;23.01;40.54;94731.31;2057988;28;1164;-63
2022/05/23 00:20:09;;;;;;;;;;;;;;;23.00;40.44;94735.03;2058095;28;1634;-62
2022/05/23 00:21:12;;;;;;;;;;;;;;;22.99;40.41;94733.44;2057965;28;1761;-62
2022/05/23 00:22:16;;;;;;;;;;;;;;;23.00;40.84;94732.38;2059059;28;1674;-61
2022/05/23 00:23:18;;;;;;;;;;;;;;;22.99;40.69;94738.78;2065498;28;1619;-61
2022/05/23 00:24:20;;;;;;;;;;;;;;;22.98;40.58;94736.31;2061357;28;1108;-63
2022/05/23 00:25:22;;;;;;;;;;;;;;;22.98;40.43;94726.41;2054097;28;1608;-61
2022/05/23 00:26:26;;;;;;;;;;;;;;;22.98;40.81;94728.28;2059317;28;1486;-63
2022/05/23 00:27:27;;;;;;;;;;;;;;;23.00;40.39;94728.88;2065519;28;1390;-63
2022/05/23 00:28:30;;;;;;;;;;;;;;;22.97;40.71;94730.16;2062857;28;1686;-61
2022/05/23 00:29:33;;;;;;;;;;;;;;;22.97;40.68;94729.34;2064190;28;1593;-61
2022/05/23 00:30:36;;;;;;;;;;;;;;;22.98;40.60;94730.97;2065321;28;1978;-62
2022/05/23 00:35:17;;;;;;;;;;;;;;;22.98;40.64;94730.97;2065716;28;1129;-60
2022/05/23 00:35:42;;;;;;;;;;;;;;;22.97;40.66;94724.00;2044324;29;1292;-60
2022/05/23 00:36:44;;;;;;;;;;;;;;;22.96;40.47;94719.66;2052410;28;1510;-62
2022/05/23 00:37:47;;;;;;;;;;;;;;;22.97;40.55;94729.34;2063733;28;1688;-61
2022/05/23 00:38:51;;;;;;;;;;;;;;;22.96;40.39;94728.53;2065920;28;1597;-60
2022/05/23 00:39:52;;;;;;;;;;;;;;;22.95;40.44;94723.41;2063816;28;1664;-60
2022/05/23 00:43:37;;;;;;;;;;;;;;;22.93;40.46;94728.16;2064981;28;1555;-63
2022/05/23 00:44:41;;;;;;;;;;;;;;;22.94;40.51;94725.25;2065602;28;1643;-60
2022/05/23 00:45:46;;;;;;;;;;;;;;;22.95;40.53;94721.53;2057868;28;1049;-61
2022/05/23 00:46:48;;;;;;;;;;;;;;;22.95;40.35;94737.59;2053313;28;1118;-60
2022/05/23 00:47:53;;;;;;;;;;;;;;;22.95;40.34;94732.25;2052378;28;1149;-65
2022/05/23 00:48:57;;;;;;;;;;;;;;;22.95;40.40;94734.91;2057904;28;1026;-61
2022/05/23 00:50:00;;;;;;;;;;;;;;;22.95;40.44;94726.06;2065602;28;1660;-63
2022/05/23 00:51:07;;;;;;;;;;;;;;;22.94;40.57;94730.63;2060572;28;1907;-61
2022/05/23 00:52:11;;;;;;;;;;;;;;;22.96;40.30;94733.91;2058052;28;1098;-61
2022/05/23 00:53:14;;;;;;;;;;;;;;;22.96;40.44;94731.22;2065026;28;1697;-61
2022/05/23 00:54:17;;;;;;;;;;;;;;;22.95;40.52;94734.13;2064802;28;1658;-63
2022/05/23 00:55:21;;;;;;;;;;;;;;;22.94;40.44;94730.63;2060580;28;2083;-60
2022/05/23 00:56:26;;;;;;;;;;;;;;;22.94;40.43;94735.97;2059922;28;1508;-61
2022/05/23 00:57:31;;;;;;;;;;;;;;;22.94;40.17;94727.94;2065679;28;1090;-62
2022/05/23 00:58:36;;;;;;;;;;;;;;;22.93;40.21;94728.16;2061173;28;1204;-61
2022/05/23 00:59:39;;;;;;;;;;;;;;;22.94;40.71;94735.97;2063228;28;1037;-63
2022/05/23 01:00:42;;;;;;;;;;;;;;;22.94;40.53;94735.97;2065218;28;1664;-62
2022/05/23 01:01:45;;;;;;;;;;;;;;;22.95;40.18;94737.59;2065599;28;1061;-65
2022/05/23 01:02:50;;;;;;;;;;;;;;;22.95;40.56;94734.13;2064581;28;1514;-61
2022/05/23 01:03:54;;;;;;;;;;;;;;;22.93;40.42;94737.00;2061327;28;1977;-62
2022/05/23 01:04:56;;;;;;;;;;;;;;;22.93;40.16;94733.53;2059244;28;1646;-61
2022/05/23 01:05:59;;;;;;;;;;;;;;;22.93;40.16;94737.00;2065399;28;1639;-62
2022/05/23 01:07:00;;;;;;;;;;;;;;;22.94;40.08;94740.53;2065840;28;1093;-62
2022/05/23 01:08:04;;;;;;;;;;;;;;;22.93;40.33;94734.34;2057999;28;1704;-61
2022/05/23 01:09:06;;;;;;;;;;;;;;;22.92;40.15;94732.72;2057776;28;1061;-62
2022/05/23 01:10:10;;;;;;;;;;;;;;;22.92;40.24;94737.25;2048871;28;1081;-62
2022/05/23 01:11:12;;;;;;;;;;;;;;;22.92;40.23;94730.03;2057409;28;2000;-61
2022/05/23 01:12:15;;;;;;;;;;;;;;;22.93;40.32;94731.66;2057827;28;1090;-63
2022/05/23 01:13:17;;;;;;;;;;;;;;;22.92;40.12;94732.72;2058430;28;1656;-62
2022/05/23 01:14:20;;;;;;;;;;;;;;;22.91;40.36;94736.44;2066103;28;978;-62
2022/05/23 01:15:23;;;;;;;;;;;;;;;22.92;40.25;94737.25;2065244;28;1442;-62
2022/05/23 01:16:27;;;;;;;;;;;;;;;22.92;40.09;94734.59;2065920;28;1066;-64
2022/05/23 01:17:29;;;;;;;;;;;;;;;22.90;40.16;94732.13;2063901;28;1559;-62
2022/05/23 01:18:32;;;;;;;;;;;;;;;22.91;40.32;94736.44;2060171;28;1617;-62
2022/05/23 01:19:34;;;;;;;;;;;;;;;22.91;40.33;94735.66;2061904;28;1489;-62
2022/05/23 01:20:37;;;;;;;;;;;;;;;22.91;40.20;94728.41;2065831;28;989;-64
2022/05/23 01:21:46;;;;;;;;;;;;;;;22.91;40.16;94733.78;2058713;28;1230;-62
2022/05/23 01:22:53;;;;;;;;;;;;;;;22.91;40.33;94730.28;2062710;28;2054;-62
2022/05/23 01:23:58;;;;;;;;;;;;;;;22.91;40.13;94730.28;2057950;28;1718;-62
2022/05/23 01:25:07;;;;;;;;;;;;;;;22.90;40.42;94732.13;2061711;28;1695;-63
2022/05/23 01:26:11;;;;;;;;;;;;;;;22.90;40.29;94725.97;2058086;28;1666;-62
2022/05/23 01:27:13;;;;;;;;;;;;;;;22.90;39.98;94725.97;2057672;28;1619;-61
2022/05/23 01:28:16;;;;;;;;;;;;;;;22.90;40.12;94723.28;2058568;28;1602;-61
2022/05/23 01:29:18;;;;;;;;;;;;;;;22.88;40.04;94718.16;2057936;28;809;-61
2022/05/23 01:30:21;;;;;;;;;;;;;;;22.89;40.05;94719.78;2064321;28;1465;-61
2022/05/23 01:31:23;;;;;;;;;;;;;;;22.87;40.09;94721.88;2065852;28;1918;-61
2022/05/23 01:32:26;;;;;;;;;;;;;;;22.88;40.06;94720.00;2060450;28;1684;-62
2022/05/23 01:33:28;;;;;;;;;;;;;;;22.87;40.00;94713.84;2061048;28;1207;-61
2022/05/23 01:34:30;;;;;;;;;;;;;;;22.87;39.95;94713.84;2067076;28;1594;-62
2022/05/23 01:35:32;;;;;;;;;;;;;;;22.89;39.94;94717.09;2067217;28;1639;-62
2022/05/23 01:36:35;;;;;;;;;;;;;;;22.86;40.30;94712.22;2066868;28;1784;-62
2022/05/23 01:37:37;;;;;;;;;;;;;;;22.86;39.92;94712.22;2059196;28;1055;-62
2022/05/23 01:38:40;;;;;;;;;;;;;;;22.87;40.09;94713.84;2063296;28;1650;-62
2022/05/23 01:39:42;;;;;;;;;;;;;;;22.88;40.03;94717.31;2066749;28;1219;-62
2022/05/23 01:40:45;;;;;;;;;;;;;;;22.86;40.16;94712.22;2065748;28;1661;-62
2022/05/23 01:41:48;;;;;;;;;;;;;;;22.86;40.03;94714.91;2059870;28;1732;-62
2022/05/23 01:42:51;;;;;;;;;;;;;;;22.86;39.94;94712.22;2066408;28;1723;-62
2022/05/23 01:43:53;;;;;;;;;;;;;;;22.86;39.98;94712.22;2062239;28;1450;-64
2022/05/23 01:44:56;;;;;;;;;;;;;;;22.86;40.18;94708.72;2061322;28;1725;-61
2022/05/23 01:45:58;;;;;;;;;;;;;;;22.85;39.95;94704.41;2066940;28;2341;-63
2022/05/23 01:47:07;;;;;;;;;;;;;;;22.85;39.93;94705.25;2066571;28;1224;-62
2022/05/23 01:48:09;;;;;;;;;;;;;;;22.85;40.20;94704.41;2067133;28;1532;-62
2022/05/23 01:49:11;;;;;;;;;;;;;;;22.84;40.19;94708.94;2067454;28;1350;-65
2022/05/23 01:50:13;;;;;;;;;;;;;;;22.84;39.97;94703.59;2066290;28;1641;-63
2022/05/23 01:51:16;;;;;;;;;;;;;;;22.85;40.13;94704.41;2064132;28;1573;-63
2022/05/23 01:52:18;;;;;;;;;;;;;;;22.85;40.12;94712.44;2066263;28;1653;-64
2022/05/23 01:53:21;;;;;;;;;;;;;;;22.84;39.97;94714.31;2058895;28;995;-61
2022/05/23 01:54:23;;;;;;;;;;;;;;;22.85;40.04;94715.13;2061737;28;1550;-61
2022/05/23 01:55:26;;;;;;;;;;;;;;;22.84;39.92;94722.34;2055767;28;1681;-63
2022/05/23 01:56:28;;;;;;;;;;;;;;;22.85;40.27;94717.78;2058083;28;1680;-63
2022/05/23 01:57:33;;;;;;;;;;;;;;;22.83;39.79;94723.41;2067208;28;1025;-65
2022/05/23 02:01:15;;;;;;;;;;;;;;;22.84;39.99;94729.56;2058544;28;1109;-62
2022/05/23 02:02:19;;;;;;;;;;;;;;;22.84;39.92;94718.84;2059787;28;1123;-63
2022/05/23 02:03:21;;;;;;;;;;;;;;;22.85;39.80;94721.31;2058941;28;1149;-63
2022/05/23 02:04:24;;;;;;;;;;;;;;;22.83;39.79;94719.91;2060303;28;1498;-64
2022/05/23 02:05:27;;;;;;;;;;;;;;;22.83;39.83;94722.59;2061868;28;1630;-64
2022/05/23 02:06:30;;;;;;;;;;;;;;;22.82;39.84;94724.44;2056754;28;1710;-62
2022/05/23 02:07:32;;;;;;;;;;;;;;;22.82;40.01;94711.03;2062701;28;1082;-62
2022/05/23 02:08:35;;;;;;;;;;;;;;;22.83;39.91;94712.69;2066484;28;1624;-65
2022/05/23 02:09:36;;;;;;;;;;;;;;;22.82;39.81;94716.41;2066822;28;1411;-63
2022/05/23 02:10:39;;;;;;;;;;;;;;;22.83;39.87;94712.69;2065721;28;1615;-63
2022/05/23 02:11:41;;;;;;;;;;;;;;;22.81;39.77;94709.41;2066847;28;1989;-62
2022/05/23 02:12:45;;;;;;;;;;;;;;;22.81;39.88;94712.09;2066910;28;1064;-62
2022/05/23 02:13:47;;;;;;;;;;;;;;;22.82;39.75;94710.22;2066797;28;1525;-61
2022/05/23 02:14:50;;;;;;;;;;;;;;;22.82;39.83;94711.03;2066474;28;1536;-61
2022/05/23 02:15:53;;;;;;;;;;;;;;;22.83;40.07;94711.88;2059386;28;1752;-61
2022/05/23 02:16:55;;;;;;;;;;;;;;;22.82;40.22;94718.25;2062007;28;1462;-62
2022/05/23 02:17:58;;;;;;;;;;;;;;;22.77;39.89;94722.47;2062073;28;1698;-63
2022/05/23 02:19:00;;;;;;;;;;;;;;;22.74;40.10;94714.09;2062808;28;1093;-63
2022/05/23 02:20:03;;;;;;;;;;;;;;;22.71;39.98;94714.56;2066501;28;1644;-64
2022/05/23 02:21:05;;;;;;;;;;;;;;;22.68;40.33;94713.13;2067661;28;1117;-64
2022/05/23 02:22:08;;;;;;;;;;;;;;;22.66;40.50;94722.44;2066596;28;1459;-64
2022/05/23 02:23:11;;;;;;;;;;;;;;;22.59;40.58;94722.53;2066671;28;1614;-64
2022/05/23 02:24:13;;;;;;;;;;;;;;;22.55;40.46;94722.19;2067155;28;1187;-64
2022/05/23 02:25:16;;;;;;;;;;;;;;;22.51;40.47;94720.22;2064190;28;1646;-64
2022/05/23 02:26:18;;;;;;;;;;;;;;;22.47;40.51;94725.19;2067588;28;1070;-64
2022/05/23 02:27:20;;;;;;;;;;;;;;;22.49;40.75;94716.94;2066364;28;1671;-65
2022/05/23 02:28:25;;;;;;;;;;;;;;;22.49;40.47;94722.28;2068002;28;1044;-65
2022/05/23 02:29:27;;;;;;;;;;;;;;;22.49;40.51;94725.78;2061405;28;1482;-66
2022/05/23 02:30:30;;;;;;;;;;;;;;;22.51;40.48;94722.88;2064850;28;1666;-65
2022/05/23 02:31:32;;;;;;;;;;;;;;;22.53;40.35;94726.94;2066839;28;1022;-65
2022/05/23 02:32:35;;;;;;;;;;;;;;;22.56;40.56;94728.34;2067078;28;1959;-65
2022/05/23 02:33:36;;;;;;;;;;;;;;;22.57;40.44;94724.63;2067536;28;1101;-66
2022/05/23 02:34:39;;;;;;;;;;;;;;;22.57;40.33;94730.81;2067129;28;1133;-65
2022/05/23 02:35:41;;;;;;;;;;;;;;;22.53;40.35;94724.25;2062023;28;1788;-64
2022/05/23 02:36:45;;;;;;;;;;;;;;;22.48;40.67;94713.44;2060396;28;1538;-64
2022/05/23 02:37:48;;;;;;;;;;;;;;;22.47;40.42;94714.47;2066504;28;1529;-65
2022/05/23 02:38:50;;;;;;;;;;;;;;;22.45;40.74;94721.94;2063764;28;1651;-62
2022/05/23 02:39:52;;;;;;;;;;;;;;;22.49;40.09;94719.63;2066752;28;1092;-63
2022/05/23 02:40:55;;;;;;;;;;;;;;;22.55;39.75;94716.00;2058547;28;1593;-66
2022/05/23 02:41:57;;;;;;;;;;;;;;;22.55;39.58;94724.03;2066602;28;1077;-63
2022/05/23 02:43:00;;;;;;;;;;;;;;;22.52;39.62;94719.97;2066312;28;1558;-64
2022/05/23 02:44:04;;;;;;;;;;;;;;;22.51;39.46;94717.53;2063360;28;1033;-64
2022/05/23 02:45:07;;;;;;;;;;;;;;;22.50;39.34;94718.56;2059545;28;1688;-63
2022/05/23 02:46:09;;;;;;;;;;;;;;;22.48;39.32;94724.16;2062747;28;1508;-64
2022/05/23 02:47:12;;;;;;;;;;;;;;;22.48;39.38;94720.66;2066349;28;1638;-64
2022/05/23 02:48:14;;;;;;;;;;;;;;;22.48;39.14;94723.31;2066955;28;1129;-64
2022/05/23 02:49:18;;;;;;;;;;;;;;;22.48;39.36;94724.16;2067353;28;1207;-64
2022/05/23 02:50:19;;;;;;;;;;;;;;;22.48;39.02;94721.47;2066970;28;998;-65
2022/05/23 02:51:23;;;;;;;;;;;;;;;22.48;39.30;94721.47;2067142;28;1120;-64
2022/05/23 02:52:24;;;;;;;;;;;;;;;22.48;39.27;94728.69;2057005;28;1941;-62
2022/05/23 02:53:27;;;;;;;;;;;;;;;22.49;39.00;94731.13;2065074;28;1634;-61
2022/05/23 02:54:29;;;;;;;;;;;;;;;22.48;38.77;94734.88;2066881;28;1038;-62
2022/05/23 02:55:32;;;;;;;;;;;;;;;22.49;38.80;94730.31;2066082;28;1726;-61
2022/05/23 02:56:34;;;;;;;;;;;;;;;22.47;39.18;94730.53;2067026;28;985;-62
2022/05/23 02:57:38;;;;;;;;;;;;;;;22.47;39.03;94727.06;2067093;28;993;-61
2022/05/23 02:58:39;;;;;;;;;;;;;;;22.45;39.00;94711.25;2066027;28;1617;-62
2022/05/23 02:59:44;;;;;;;;;;;;;;;22.44;38.95;94720.31;2066692;28;1564;-61
2022/05/23 03:00:46;;;;;;;;;;;;;;;22.44;38.90;94717.63;2064728;28;1720;-62
2022/05/23 03:03:09;;;;;;;;;;;;;;;22.15;38.50;94721.19;2060749;28;1661;-66
2022/05/23 03:04:11;;;;;;;;;;;;;;;21.52;38.99;94723.22;2062196;28;1336;-65
2022/05/23 03:05:12;;;;;;;;;;;;;;;21.12;39.08;94722.84;2063887;28;1750;-64
2022/05/23 03:06:15;;;;;;;;;;;;;;;20.89;39.97;94726.16;2059140;28;848;-64
2022/05/23 03:07:17;;;;;;;;;;;;;;;20.77;40.21;94726.03;2065880;28;1553;-64
2022/05/23 03:08:21;;;;;;;;;;;;;;;20.71;40.22;94730.41;2066638;28;962;-64
2022/05/23 03:09:23;;;;;;;;;;;;;;;20.55;39.93;94728.28;2067067;28;1014;-64
2022/05/23 03:10:26;;;;;;;;;;;;;;;20.40;40.17;94733.13;2066457;28;1485;-64
2022/05/23 03:11:29;;;;;;;;;;;;;;;20.38;40.40;94735.22;2066828;28;1161;-64
2022/05/23 03:12:31;;;;;;;;;;;;;;;20.33;40.24;94736.63;2067113;28;1995;-65
2022/05/23 03:13:34;;;;;;;;;;;;;;;20.29;40.53;94724.78;2066998;28;1101;-64
2022/05/23 03:14:36;;;;;;;;;;;;;;;20.21;40.48;94722.38;2062668;28;1396;-64
2022/05/23 03:15:40;;;;;;;;;;;;;;;20.19;40.21;94726.28;2057034;28;1594;-65
2022/05/23 03:16:42;;;;;;;;;;;;;;;20.17;40.35;94721.16;2066096;28;1537;-64
2022/05/23 03:17:45;;;;;;;;;;;;;;;20.14;40.51;94716.25;2059314;28;1517;-64
2022/05/23 03:18:47;;;;;;;;;;;;;;;20.21;40.54;94719.69;2061777;28;1664;-64
2022/05/23 03:19:50;;;;;;;;;;;;;;;20.19;40.47;94716.41;2064433;28;1625;-64
2022/05/23 03:20:55;;;;;;;;;;;;;;;20.18;40.55;94720.13;2058155;28;1574;-64
2022/05/23 03:27:20;;;;;;;;;;;;;;;20.13;40.83;94708.47;2064645;28;1315;-63
2022/05/23 03:28:22;;;;;;;;;;;;;;;20.19;40.60;94716.41;2066584;28;1675;-65
2022/05/23 03:29:24;;;;;;;;;;;;;;;20.04;40.67;94699.91;2066698;28;1030;-63
2022/05/23 03:30:28;;;;;;;;;;;;;;;19.96;40.76;94698.31;2063434;28;1664;-64
2022/05/23 03:31:33;;;;;;;;;;;;;;;19.97;41.06;94701.81;2063343;28;1708;-65
2022/05/23 03:32:35;;;;;;;;;;;;;;;20.21;41.41;94695.69;2059945;28;1551;-72
2022/05/23 03:33:38;;;;;;;;;;;;;;;20.06;40.35;94704.00;2066460;28;1902;-66
2022/05/23 03:34:40;;;;;;;;;;;;;;;19.99;41.08;94702.41;2058478;28;990;-67
2022/05/23 03:35:48;;;;;;;;;;;;;;;19.58;41.56;94698.34;2058762;28;1097;-63
2022/05/23 03:36:51;;;;;;;;;;;;;;;19.36;42.04;94709.28;2063186;28;1653;-65
2022/05/23 03:37:53;;;;;;;;;;;;;;;19.39;42.40;94713.34;2057730;28;1583;-66
2022/05/23 03:38:55;;;;;;;;;;;;;;;19.48;42.20;94711.28;2064980;28;1471;-65
2022/05/23 03:39:57;;;;;;;;;;;;;;;19.71;41.96;94716.91;2066323;28;1017;-64
2022/05/23 03:41:05;;;;;;;;;;;;;;;19.57;41.64;94715.34;2065448;28;1702;-65
2022/05/23 03:42:08;;;;;;;;;;;;;;;19.40;42.23;94721.13;2065886;28;1583;-65
2022/05/23 03:43:10;;;;;;;;;;;;;;;19.32;42.46;94716.06;2066581;28;1172;-64
2022/05/23 03:44:13;;;;;;;;;;;;;;;19.26;42.68;94713.41;2066093;28;1041;-65
2022/05/23 03:45:15;;;;;;;;;;;;;;;19.26;42.82;94708.88;2065441;28;1009;-63
2022/05/23 03:46:18;;;;;;;;;;;;;;;19.31;42.59;94706.41;2066393;28;1536;-65
2022/05/23 03:47:21;;;;;;;;;;;;;;;19.35;42.55;94707.66;2065420;28;1565;-62
2022/05/23 03:48:24;;;;;;;;;;;;;;;19.34;42.74;94708.66;2062842;28;1761;-65
2022/05/23 03:49:27;;;;;;;;;;;;;;;19.28;42.65;94706.84;2053261;28;1775;-65
2022/05/23 03:50:31;;;;;;;;;;;;;;;19.37;42.64;94700.25;2061915;28;1526;-64
2022/05/23 03:51:34;;;;;;;;;;;;;;;19.32;42.39;94700.09;2061633;28;1599;-67
2022/05/23 03:52:35;;;;;;;;;;;;;;;19.19;42.91;94692.94;2055212;28;1077;-65
2022/05/23 03:53:38;;;;;;;;;;;;;;;19.14;42.94;94700.75;2056079;28;1903;-65
2022/05/23 03:54:40;;;;;;;;;;;;;;;19.10;42.94;94693.41;2056086;28;1117;-65
2022/05/23 03:55:43;;;;;;;;;;;;;;;19.16;43.02;94708.53;2059836;28;1764;-65
2022/05/23 03:56:45;;;;;;;;;;;;;;;19.13;43.10;94709.75;2063720;28;1044;-65
2022/05/23 03:57:47;;;;;;;;;;;;;;;19.12;42.72;94707.28;2063081;28;1528;-65
2022/05/23 03:58:50;;;;;;;;;;;;;;;19.06;42.78;94714.28;2060977;28;1478;-65
2022/05/23 03:59:54;;;;;;;;;;;;;;;18.96;43.27;94713.91;2053757;28;1357;-66
2022/05/23 04:01:03;;;;;;;;;;;;;;;19.12;43.22;94717.94;2059799;28;1438;-65
2022/05/23 04:02:07;;;;;;;;;;;;;;;19.13;42.92;94720.41;2064544;28;1026;-64
2022/05/23 04:03:10;;;;;;;;;;;;;;;19.47;42.79;94725.63;2064416;28;1552;-66
2022/05/23 04:04:13;;;;;;;;;;;;;;;19.72;43.24;94718.56;2059979;28;1744;-65
2022/05/23 04:05:17;;;;;;;;;;;;;;;19.56;42.92;94700.41;2065181;28;1536;-69
2022/05/23 04:06:20;;;;;;;;;;;;;;;19.43;43.00;94715.41;2065600;28;1772;-63
2022/05/23 04:07:23;;;;;;;;;;;;;;;19.38;42.99;94717.06;2064877;28;1860;-73
2022/05/23 04:08:25;;;;;;;;;;;;;;;19.30;43.39;94715.44;2065543;28;1428;-68
2022/05/23 04:09:28;;;;;;;;;;;;;;;19.19;43.57;94713.44;2065941;28;1868;-65
2022/05/23 04:10:30;;;;;;;;;;;;;;;19.29;43.99;94713.81;2064632;28;1562;-63
2022/05/23 04:11:40;;;;;;;;;;;;;;;19.34;44.21;94710.50;2057510;28;1516;-63
2022/05/23 04:12:45;;;;;;;;;;;;;;;19.44;44.25;94711.69;2066253;28;1769;-65
2022/05/23 04:14:08;;;;;;;;;;;;;;;19.31;43.90;94702.94;2059018;28;1907;-66
2022/05/23 04:15:12;;;;;;;;;;;;;;;19.30;43.98;94701.31;2060612;28;1513;-62
2022/05/23 04:16:19;;;;;;;;;;;;;;;19.31;44.23;94695.75;2062916;28;1591;-65
2022/05/23 04:17:24;;;;;;;;;;;;;;;19.24;44.32;94699.50;2067973;28;1779;-65
2022/05/23 04:18:33;;;;;;;;;;;;;;;19.10;44.35;94688.06;2067993;28;1144;-66
2022/05/23 04:19:39;;;;;;;;;;;;;;;18.99;44.50;94695.66;2066692;28;1605;-65
2022/05/23 04:20:44;;;;;;;;;;;;;;;19.04;44.11;94704.88;2067839;28;1335;-65
2022/05/23 04:21:55;;;;;;;;;;;;;;;19.08;44.50;94700.78;2065854;28;1672;-63
2022/05/23 04:23:28;;;;;;;;;;;;;;;19.15;44.15;94706.88;2059113;28;2032;-64
2022/05/23 04:24:33;;;;;;;;;;;;;;;18.99;44.28;94710.84;2066804;28;1523;-65
2022/05/23 04:25:45;;;;;;;;;;;;;;;18.97;44.43;94705.69;2066354;28;1707;-64
2022/05/23 04:26:51;;;;;;;;;;;;;;;18.89;44.56;94707.78;2065358;28;1395;-65
2022/05/23 04:27:54;;;;;;;;;;;;;;;18.97;44.49;94705.69;2065335;28;1022;-65
2022/05/23 04:28:56;;;;;;;;;;;;;;;19.02;44.18;94706.94;2065780;28;1096;-65
2022/05/23 04:29:59;;;;;;;;;;;;;;;18.99;44.16;94703.66;2065589;28;1749;-65
2022/05/23 04:31:02;;;;;;;;;;;;;;;18.91;44.32;94701.22;2065797;28;993;-64
2022/05/23 04:35:12;;;;;;;;;;;;;;;18.96;44.48;94703.25;2065817;28;1106;-66
2022/05/23 04:36:11;;;;;;;;;;;;;;;19.09;44.28;94692.56;2065726;28;990;-64
2022/05/23 04:37:18;;;;;;;;;;;;;;;19.10;44.22;94688.88;2065347;28;1157;-64
2022/05/23 04:38:20;;;;;;;;;;;;;;;19.13;44.29;94692.97;2065319;28;1064;-64
2022/05/23 04:39:23;;;;;;;;;;;;;;;19.12;44.40;94692.16;2064984;28;1077;-64
2022/05/23 04:40:26;;;;;;;;;;;;;;;19.20;44.48;94701.75;2065357;28;1231;-64
2022/05/23 04:41:29;;;;;;;;;;;;;;;19.22;44.25;94705.03;2064765;28;1359;-63
2022/05/23 04:42:33;;;;;;;;;;;;;;;19.31;44.10;94705.59;2065273;28;1062;-65
2022/05/23 04:43:36;;;;;;;;;;;;;;;19.33;44.00;94700.88;2065078;28;1085;-65
2022/05/23 04:44:38;;;;;;;;;;;;;;;19.27;44.13;94701.75;2064433;28;1070;-64
2022/05/23 04:45:41;;;;;;;;;;;;;;;19.22;44.18;94705.84;2057074;28;1060;-65
2022/05/23 04:50:39;;;;;;;;;;;;;;;19.21;44.32;94695.41;2064105;28;1318;-65
2022/05/23 04:51:41;;;;;;;;;;;;;;;19.19;44.38;94692.13;2064450;28;1110;-64
2022/05/23 04:52:44;;;;;;;;;;;;;;;19.21;44.36;94687.41;2065225;28;1052;-64
2022/05/23 04:53:49;;;;;;;;;;;;;;;19.26;44.48;94687.56;2065785;28;981;-65
2022/05/23 04:54:52;;;;;;;;;;;;;;;19.33;44.00;94680.38;2065670;28;1914;-64
2022/05/23 04:55:54;;;;;;;;;;;;;;;19.32;43.79;94677.94;2065571;28;1316;-64
2022/05/23 04:56:57;;;;;;;;;;;;;;;19.31;43.70;94678.97;2057322;28;1022;-64
2022/05/23 04:57:59;;;;;;;;;;;;;;;19.24;43.80;94681.66;2065410;28;1074;-64
2022/05/23 04:59:02;;;;;;;;;;;;;;;19.17;44.29;94678.19;2065489;28;1097;-64
2022/05/23 05:00:06;;;;;;;;;;;;;;;19.08;44.33;94682.94;2061137;28;1263;-64
2022/05/23 05:01:09;;;;;;;;;;;;;;;19.04;44.60;94680.94;2057705;28;1109;-64
2022/05/23 05:02:12;;;;;;;;;;;;;;;19.10;44.50;94685.41;2057934;28;1057;-64
2022/05/23 05:03:15;;;;;;;;;;;;;;;19.25;44.51;94685.16;2057788;28;1122;-64
2022/05/23 05:04:17;;;;;;;;;;;;;;;19.38;44.30;94687.75;2057822;28;1065;-64
2022/05/23 05:05:22;;;;;;;;;;;;;;;19.45;43.98;94681.34;2057655;28;1275;-64
2022/05/23 05:06:25;;;;;;;;;;;;;;;19.55;43.78;94686.28;2057252;28;1081;-64
2022/05/23 05:07:27;;;;;;;;;;;;;;;19.62;43.80;94686.22;2055464;28;1140;-64
2022/05/23 05:08:30;;;;;;;;;;;;;;;19.68;43.74;94688.03;2052090;28;1053;-65
2022/05/23 05:09:32;;;;;;;;;;;;;;;19.67;43.51;94689.06;2059313;28;1388;-64
2022/05/23 05:10:35;;;;;;;;;;;;;;;19.67;43.58;94689.06;2059330;28;1164;-64
2022/05/23 05:11:37;;;;;;;;;;;;;;;19.59;43.46;94684.81;2059531;28;986;-64
2022/05/23 05:12:39;;;;;;;;;;;;;;;19.53;44.04;94683.00;2059396;28;1112;-65
2022/05/23 05:13:43;;;;;;;;;;;;;;;19.56;44.20;94687.09;2059161;28;1141;-64
2022/05/23 05:14:46;;;;;;;;;;;;;;;19.54;44.12;94687.28;2059095;28;1992;-64
2022/05/23 05:15:47;;;;;;;;;;;;;;;19.53;44.09;94682.19;2059451;28;1138;-65
2022/05/23 05:16:50;;;;;;;;;;;;;;;19.51;44.19;94679.69;2059381;28;1189;-64
2022/05/23 05:17:53;;;;;;;;;;;;;;;19.50;44.19;94677.25;2059332;28;1104;-65
2022/05/23 05:18:55;;;;;;;;;;;;;;;19.48;44.54;94681.97;2055411;28;1150;-65
2022/05/23 05:19:58;;;;;;;;;;;;;;;19.60;44.05;94680.28;2054416;28;1114;-65
2022/05/23 05:21:04;;;;;;;;;;;;;;;19.72;44.09;94678.59;2058882;28;1607;-65
2022/05/23 05:22:07;;;;;;;;;;;;;;;19.80;43.64;94678.31;2059596;28;1026;-65
2022/05/23 05:23:10;;;;;;;;;;;;;;;19.84;43.75;94679.53;2059496;28;1864;-63
2022/05/23 05:24:12;;;;;;;;;;;;;;;19.88;43.62;94677.25;2059385;28;1109;-63
2022/05/23 05:25:16;;;;;;;;;;;;;;;19.89;43.46;94685.03;2059132;28;1109;-63
2022/05/23 05:26:18;;;;;;;;;;;;;;;19.89;43.37;94682.38;2059020;28;1555;-63
2022/05/23 05:27:21;;;;;;;;;;;;;;;19.92;43.52;94674.97;2059064;28;1224;-63
2022/05/23 05:28:23;;;;;;;;;;;;;;;20.05;43.34;94672.22;2059124;28;1050;-66
2022/05/23 05:29:28;;;;;;;;;;;;;;;20.13;43.24;94677.28;2059320;28;1109;-63
2022/05/23 05:30:30;;;;;;;;;;;;;;;20.20;43.38;94671.88;2054584;28;1093;-63
2022/05/23 05:31:35;;;;;;;;;;;;;;;20.28;43.08;94664.44;2054430;28;1303;-64
2022/05/23 05:32:40;;;;;;;;;;;;;;;20.39;42.95;94670.13;2059410;28;1164;-64
2022/05/23 05:33:44;;;;;;;;;;;;;;;20.34;43.11;94668.91;2059297;28;1057;-63
2022/05/23 05:34:49;;;;;;;;;;;;;;;20.40;43.02;94671.75;2059471;28;1904;-63
2022/05/23 05:35:53;;;;;;;;;;;;;;;20.43;43.30;94666.81;2058993;28;1061;-64
2022/05/23 05:37:02;;;;;;;;;;;;;;;20.44;43.37;94662.28;2059880;28;1050;-64
2022/05/23 05:38:05;;;;;;;;;;;;;;;20.40;43.52;94663.75;2059048;28;1408;-64
2022/05/23 05:39:09;;;;;;;;;;;;;;;20.39;42.98;94664.78;2059384;28;1026;-63
2022/05/23 05:40:12;;;;;;;;;;;;;;;20.41;42.88;94665.41;2059219;28;1160;-65
2022/05/23 05:41:17;;;;;;;;;;;;;;;20.36;43.41;94660.69;2059273;28;1744;-64
2022/05/23 05:42:21;;;;;;;;;;;;;;;20.31;43.22;94663.19;2050336;28;1310;-64
2022/05/23 05:43:26;;;;;;;;;;;;;;;20.36;42.80;94662.53;2058499;28;1064;-65
2022/05/23 05:44:31;;;;;;;;;;;;;;;20.39;43.27;94665.59;2058912;28;1105;-66
2022/05/23 05:45:38;;;;;;;;;;;;;;;20.36;43.41;94671.34;2059122;28;1173;-65
2022/05/23 05:46:43;;;;;;;;;;;;;;;20.41;43.18;94676.06;2059316;28;1006;-65
2022/05/23 05:47:47;;;;;;;;;;;;;;;20.50;43.10;94677.41;2059187;28;1152;-65
2022/05/23 05:49:14;;;;;;;;;;;;;;;20.41;43.47;94673.41;2059152;28;1529;-65
2022/05/23 05:50:19;;;;;;;;;;;;;;;20.28;43.54;94677.75;2059172;28;1085;-64
2022/05/23 05:51:23;;;;;;;;;;;;;;;20.19;43.65;94672.94;2058878;28;1026;-66
2022/05/23 05:52:30;;;;;;;;;;;;;;;20.20;43.97;94678.03;2059108;28;1089;-63
2022/05/23 05:53:32;;;;;;;;;;;;;;;20.27;43.93;94689.47;2052645;28;1142;-65
2022/05/23 05:54:35;;;;;;;;;;;;;;;20.31;43.64;94688.00;2057465;28;1374;-64
2022/05/23 05:55:38;;;;;;;;;;;;;;;20.36;43.42;94687.34;2058659;28;1988;-64
2022/05/23 05:56:43;;;;;;;;;;;;;;;20.44;43.28;94696.97;2058848;28;1295;-63